createdAt,value
2018-07-23T00:00:26.844Z,19.50
2018-07-23T00:02:55.579Z,19.50
2018-07-23T00:05:24.111Z,19.50
2018-07-23T00:07:57.937Z,19.50
2018-07-23T00:10:28.845Z,19.50
2018-07-23T00:12:59.327Z,19.50
2018-07-23T00:15:27.817Z,19.40
2018-07-23T00:17:56.393Z,19.40
2018-07-23T00:20:24.994Z,19.40
2018-07-23T00:22:53.561Z,19.30
2018-07-23T00:25:23.107Z,19.30
2018-07-23T00:27:58.243Z,19.30
2018-07-23T00:30:26.907Z,19.20
2018-07-23T00:33:01.815Z,19.20
2018-07-23T00:35:30.354Z,19.20
2018-07-23T00:37:58.867Z,19.10
2018-07-23T00:40:28.308Z,19.20
2018-07-23T00:43:04.319Z,19.10
2018-07-23T00:45:32.803Z,19.10
2018-07-23T00:48:01.292Z,19.10
2018-07-23T00:50:29.786Z,19.10
2018-07-23T00:52:58.287Z,19.00
2018-07-23T00:55:26.805Z,19.00
2018-07-23T00:57:55.401Z,19.00
2018-07-23T01:00:23.917Z,19.00
2018-07-23T01:02:52.399Z,19.00
2018-07-23T01:05:20.946Z,18.90
2018-07-23T01:07:49.499Z,18.90
2018-07-23T01:10:18.057Z,18.80
2018-07-23T01:12:46.575Z,18.80
2018-07-23T01:15:15.138Z,18.80
2018-07-23T01:17:43.619Z,18.80
2018-07-23T01:20:12.414Z,18.80
2018-07-23T01:22:41.045Z,18.70
2018-07-23T01:25:09.556Z,18.70
2018-07-23T01:27:38.106Z,18.70
2018-07-23T01:30:09.948Z,18.70
2018-07-23T01:32:38.476Z,18.70
2018-07-23T01:35:12.487Z,18.70
2018-07-23T01:37:41.107Z,18.70
2018-07-23T01:40:09.646Z,18.70
2018-07-23T01:42:38.132Z,18.70
2018-07-23T01:45:06.822Z,18.70
2018-07-23T01:47:37.934Z,18.70
2018-07-23T01:50:06.815Z,18.70
2018-07-23T01:52:35.321Z,18.70
2018-07-23T01:55:03.949Z,18.70
2018-07-23T01:57:32.495Z,18.70
2018-07-23T02:00:01.135Z,18.60
2018-07-23T02:02:29.630Z,18.60
2018-07-23T02:04:58.171Z,18.60
2018-07-23T02:07:29.240Z,18.50
2018-07-23T02:09:57.718Z,18.50
2018-07-23T02:12:26.239Z,18.50
2018-07-23T02:14:54.928Z,18.50
2018-07-23T02:17:23.531Z,18.50
2018-07-23T02:19:52.068Z,18.50
2018-07-23T02:22:22.651Z,18.50
2018-07-23T02:24:51.294Z,18.50
2018-07-23T02:27:19.826Z,18.50
2018-07-23T02:29:48.328Z,18.40
2018-07-23T02:32:17.667Z,18.40
2018-07-23T02:34:46.175Z,18.40
2018-07-23T02:37:14.692Z,18.30
2018-07-23T02:39:43.366Z,18.30
2018-07-23T02:42:11.832Z,18.30
2018-07-23T02:44:40.332Z,18.30
2018-07-23T02:47:09.460Z,18.30
2018-07-23T02:49:38.170Z,18.30
2018-07-23T02:52:06.804Z,18.20
2018-07-23T02:54:35.779Z,18.20
2018-07-23T02:57:04.357Z,18.20
2018-07-23T02:59:32.899Z,18.20
2018-07-23T03:02:01.343Z,18.10
2018-07-23T03:04:29.871Z,18.10
2018-07-23T03:06:58.396Z,18.10
2018-07-23T03:09:26.981Z,18.10
2018-07-23T03:11:55.571Z,18.00
2018-07-23T03:14:24.126Z,17.90
2018-07-23T03:16:52.615Z,17.90
2018-07-23T03:19:21.150Z,17.90
2018-07-23T03:21:49.867Z,17.90
2018-07-23T03:24:18.369Z,17.90
2018-07-23T03:26:46.956Z,17.90
2018-07-23T03:29:15.422Z,17.80
2018-07-23T03:31:43.967Z,17.80
2018-07-23T03:34:12.470Z,17.80
2018-07-23T03:36:41.106Z,17.80
2018-07-23T03:39:10.656Z,17.80
2018-07-23T03:41:39.324Z,17.70
2018-07-23T03:46:38.143Z,17.60
2018-07-23T03:49:06.964Z,17.60
2018-07-23T03:51:35.556Z,17.60
2018-07-23T03:54:04.128Z,17.60
2018-07-23T03:56:32.696Z,17.60
2018-07-23T03:59:01.308Z,17.70
2018-07-23T04:01:29.800Z,17.70
2018-07-23T04:03:58.378Z,17.80
2018-07-23T04:06:26.880Z,17.80
2018-07-23T04:08:55.425Z,17.80
2018-07-23T04:11:23.977Z,17.90
2018-07-23T04:13:52.565Z,17.90
2018-07-23T04:16:21.127Z,17.90
2018-07-23T04:18:49.619Z,18.00
2018-07-23T04:21:18.188Z,18.10
2018-07-23T04:23:46.733Z,18.10
2018-07-23T04:26:15.211Z,18.10
2018-07-23T04:28:43.730Z,18.10
2018-07-23T04:31:12.239Z,18.10
2018-07-23T04:33:40.812Z,18.10
2018-07-23T04:36:09.264Z,18.00
2018-07-23T04:38:39.050Z,18.00
2018-07-23T04:41:07.563Z,17.90
2018-07-23T04:43:36.082Z,17.90
2018-07-23T04:46:04.846Z,17.90
2018-07-23T04:48:33.482Z,17.90
2018-07-23T04:51:01.964Z,17.90
2018-07-23T04:53:30.559Z,17.90
2018-07-23T04:55:59.425Z,17.90
2018-07-23T04:58:28.004Z,17.80
2018-07-23T05:00:56.657Z,17.90
2018-07-23T05:03:25.775Z,17.90
2018-07-23T05:05:54.210Z,17.90
2018-07-23T05:08:23.441Z,17.90
2018-07-23T05:10:51.943Z,18.00
2018-07-23T05:13:20.423Z,18.00
2018-07-23T05:15:48.918Z,18.00
2018-07-23T05:18:17.455Z,18.00
2018-07-23T05:20:46.851Z,18.00
2018-07-23T05:23:15.400Z,18.10
2018-07-23T05:25:43.988Z,18.10
2018-07-23T05:28:12.518Z,18.30
2018-07-23T05:30:41.047Z,18.50
2018-07-23T05:33:15.985Z,18.60
2018-07-23T05:35:44.490Z,18.70
2018-07-23T05:38:13.057Z,18.90
2018-07-23T05:40:41.515Z,19.00
2018-07-23T05:43:10.056Z,19.00
2018-07-23T05:45:38.593Z,19.00
2018-07-23T05:48:07.116Z,19.00
2018-07-23T05:50:35.610Z,19.10
2018-07-23T05:53:04.123Z,19.10
2018-07-23T05:55:32.691Z,19.10
2018-07-23T05:58:01.707Z,19.10
2018-07-23T06:00:30.219Z,19.10
2018-07-23T06:02:58.888Z,19.20
2018-07-23T06:05:27.480Z,19.30
2018-07-23T06:07:55.922Z,19.40
2018-07-23T06:10:24.800Z,19.50
2018-07-23T06:12:53.470Z,19.50
2018-07-23T06:15:22.749Z,19.50
2018-07-23T06:17:51.447Z,19.60
2018-07-23T06:20:20.064Z,19.60
2018-07-23T06:22:48.561Z,19.70
2018-07-23T06:25:17.076Z,19.80
2018-07-23T06:27:45.579Z,19.90
2018-07-23T06:30:14.133Z,19.90
2018-07-23T06:32:42.602Z,19.90
2018-07-23T06:35:11.119Z,19.90
2018-07-23T06:37:39.679Z,20.00
2018-07-23T06:40:08.657Z,20.10
2018-07-23T06:42:37.290Z,20.30
2018-07-23T06:45:05.932Z,20.30
2018-07-23T06:47:34.411Z,20.40
2018-07-23T06:50:02.939Z,20.60
2018-07-23T06:52:31.531Z,20.70
2018-07-23T06:55:00.016Z,20.80
2018-07-23T06:57:28.806Z,20.90
2018-07-23T06:59:57.283Z,21.00
2018-07-23T07:02:25.931Z,21.00
2018-07-23T07:04:54.511Z,21.00
2018-07-23T07:07:22.991Z,21.10
2018-07-23T07:09:51.476Z,21.20
2018-07-23T07:12:20.042Z,21.30
2018-07-23T07:14:48.513Z,21.40
2018-07-23T07:17:17.019Z,21.40
2018-07-23T07:19:45.518Z,21.40
2018-07-23T07:22:14.031Z,21.50
2018-07-23T07:24:42.719Z,21.60
2018-07-23T07:27:11.226Z,21.70
2018-07-23T07:29:39.825Z,21.70
2018-07-23T07:32:08.318Z,21.80
2018-07-23T07:34:37.763Z,21.90
2018-07-23T07:37:06.411Z,22.00
2018-07-23T07:39:34.923Z,22.10
2018-07-23T07:42:03.553Z,22.30
2018-07-23T07:44:32.131Z,22.40
2018-07-23T07:47:00.660Z,22.70
2018-07-23T07:49:29.190Z,22.80
2018-07-23T07:53:36.819Z,23.00
2018-07-23T07:56:05.317Z,23.10
2018-07-23T07:58:33.895Z,23.20
2018-07-23T08:01:02.374Z,23.40
2018-07-23T08:03:31.705Z,23.60
2018-07-23T08:06:00.194Z,23.70
2018-07-23T08:10:56.891Z,23.80
2018-07-23T08:13:25.588Z,23.90
2018-07-23T08:15:54.154Z,24.00
2018-07-23T08:18:22.699Z,24.10
2018-07-23T08:20:51.284Z,24.30
2018-07-23T08:23:19.769Z,24.40
2018-07-23T08:25:48.291Z,24.60
2018-07-23T08:28:16.765Z,24.70
2018-07-23T08:30:45.312Z,24.90
2018-07-23T08:33:13.780Z,25.20
2018-07-23T08:35:42.324Z,25.30
2018-07-23T08:38:10.830Z,25.40
2018-07-23T08:40:39.372Z,25.50
2018-07-23T08:43:07.969Z,25.60
2018-07-23T08:45:36.527Z,25.70
2018-07-23T08:48:05.051Z,25.70
2018-07-23T08:50:33.611Z,25.80
2018-07-23T08:53:02.118Z,26.00
2018-07-23T08:55:31.172Z,26.10
2018-07-23T08:57:59.680Z,26.20
2018-07-23T09:00:28.204Z,26.30
2018-07-23T09:02:56.697Z,26.50
2018-07-23T09:05:25.251Z,26.70
2018-07-23T09:07:53.783Z,26.80
2018-07-23T09:10:22.259Z,26.90
2018-07-23T09:12:51.002Z,27.00
2018-07-23T09:15:19.482Z,27.00
2018-07-23T09:17:49.711Z,27.10
2018-07-23T09:20:18.310Z,27.20
2018-07-23T09:22:46.855Z,27.30
2018-07-23T09:25:15.405Z,27.40
2018-07-23T09:27:43.868Z,27.60
2018-07-23T09:30:17.789Z,27.60
2018-07-23T09:32:47.395Z,27.70
2018-07-23T09:35:15.935Z,27.80
2018-07-23T09:37:44.494Z,27.90
2018-07-23T09:40:13.369Z,28.10
2018-07-23T09:42:41.968Z,28.30
2018-07-23T09:45:10.624Z,28.50
2018-07-23T09:47:39.263Z,28.60
2018-07-23T09:50:07.755Z,28.70
2018-07-23T09:52:36.297Z,28.70
2018-07-23T09:55:04.852Z,28.70
2018-07-23T09:57:33.405Z,28.80
2018-07-23T10:00:01.903Z,28.80
2018-07-23T10:02:30.394Z,29.00
2018-07-23T10:04:58.939Z,29.30
2018-07-23T10:07:27.431Z,29.50
2018-07-23T10:09:55.962Z,29.60
2018-07-23T10:12:24.484Z,29.80
2018-07-23T10:14:53.004Z,29.90
2018-07-23T10:17:21.546Z,29.70
2018-07-23T10:19:50.103Z,29.40
2018-07-23T10:22:18.731Z,29.40
2018-07-23T10:24:47.188Z,29.60
2018-07-23T10:27:15.648Z,29.40
2018-07-23T10:29:44.184Z,29.40
2018-07-23T10:32:12.724Z,29.60
2018-07-23T10:34:41.361Z,30.00
2018-07-23T10:37:09.899Z,30.30
2018-07-23T10:39:38.370Z,30.20
2018-07-23T10:42:07.036Z,30.40
2018-07-23T10:44:35.587Z,30.80
2018-07-23T10:47:04.110Z,31.10
2018-07-23T10:49:32.665Z,31.20
2018-07-23T10:52:01.795Z,31.40
2018-07-23T10:54:30.326Z,31.70
2018-07-23T10:56:58.913Z,31.70
2018-07-23T10:59:34.020Z,31.70
2018-07-23T11:02:02.534Z,31.80
2018-07-23T11:04:31.082Z,32.00
2018-07-23T11:06:59.641Z,32.20
2018-07-23T11:09:28.095Z,32.10
2018-07-23T11:11:56.775Z,31.70
2018-07-23T11:14:25.297Z,31.40
2018-07-23T11:16:53.953Z,30.90
2018-07-23T11:19:22.529Z,30.70
2018-07-23T11:21:51.107Z,30.50
2018-07-23T11:24:19.632Z,30.20
2018-07-23T11:26:48.192Z,29.90
2018-07-23T11:29:16.678Z,29.60
2018-07-23T11:31:45.235Z,29.30
2018-07-23T11:34:13.756Z,28.90
2018-07-23T11:36:42.240Z,28.60
2018-07-23T11:39:11.790Z,28.40
2018-07-23T11:41:40.619Z,28.20
2018-07-23T11:44:09.371Z,27.90
2018-07-23T11:49:06.842Z,27.70
2018-07-23T11:51:35.541Z,27.70
2018-07-23T11:54:04.291Z,27.70
2018-07-23T11:56:32.799Z,27.70
2018-07-23T11:59:01.282Z,27.80
2018-07-23T12:01:29.792Z,28.00
2018-07-23T12:06:26.907Z,28.30
2018-07-23T12:08:55.457Z,28.50
2018-07-23T12:11:23.952Z,28.60
2018-07-23T12:13:52.458Z,28.90
2018-07-23T12:16:21.296Z,29.80
2018-07-23T12:18:49.866Z,30.50
2018-07-23T12:21:18.473Z,31.60
2018-07-23T12:23:47.022Z,32.70
2018-07-23T12:26:15.523Z,33.50
2018-07-23T12:28:44.054Z,34.40
2018-07-23T12:31:12.617Z,35.70
2018-07-23T12:33:41.180Z,37.20
2018-07-23T12:36:12.933Z,38.60
2018-07-23T12:38:41.438Z,39.90
2018-07-23T12:41:09.936Z,40.60
2018-07-23T12:43:38.442Z,41.00
2018-07-23T12:46:07.017Z,39.60
2018-07-23T12:48:35.527Z,38.30
2018-07-23T12:51:04.058Z,36.70
2018-07-23T12:53:32.517Z,36.30
2018-07-23T12:56:00.970Z,37.30
2018-07-23T12:58:29.449Z,37.70
2018-07-23T13:00:57.931Z,37.60
2018-07-23T13:03:26.515Z,37.40
2018-07-23T13:05:58.430Z,37.60
2018-07-23T13:08:27.922Z,37.70
2018-07-23T13:10:56.399Z,37.70
2018-07-23T13:13:25.162Z,38.70
2018-07-23T13:15:53.715Z,40.10
2018-07-23T13:18:22.223Z,41.20
2018-07-23T13:20:50.857Z,42.00
2018-07-23T13:23:19.481Z,42.70
2018-07-23T13:25:47.992Z,43.10
2018-07-23T13:28:16.485Z,44.10
2018-07-23T13:30:45.046Z,44.20
2018-07-23T13:33:13.815Z,44.00
2018-07-23T13:35:42.344Z,44.00
2018-07-23T13:38:10.934Z,44.10
2018-07-23T13:40:39.387Z,44.20
2018-07-23T13:43:07.994Z,44.90
2018-07-23T16:43:35.424Z,32.80
2018-07-23T16:46:05.723Z,32.90
2018-07-23T16:48:34.386Z,32.90
2018-07-23T16:51:02.893Z,32.70
2018-07-23T16:53:31.500Z,32.80
2018-07-23T16:56:11.428Z,32.80
2018-07-23T16:58:40.160Z,33.00
2018-07-23T17:01:08.661Z,33.50
2018-07-23T17:03:38.698Z,34.00
2018-07-23T17:06:07.359Z,34.90
2018-07-23T17:08:36.038Z,35.50
2018-07-23T17:11:04.798Z,35.10
2018-07-23T17:13:33.281Z,34.70
2018-07-23T17:16:01.882Z,34.50
2018-07-23T17:18:30.466Z,34.30
2018-07-23T17:20:59.883Z,34.10
2018-07-23T17:23:28.558Z,34.10
2018-07-23T17:25:57.959Z,34.60
2018-07-23T17:28:27.833Z,34.90
2018-07-23T17:31:00.134Z,35.10
2018-07-23T17:33:28.904Z,35.40
2018-07-23T17:35:58.373Z,35.60
2018-07-23T17:38:26.929Z,35.30
2018-07-23T17:40:55.435Z,35.00
2018-07-23T17:43:24.436Z,34.10
2018-07-23T17:45:53.842Z,32.50
2018-07-23T17:48:22.755Z,31.30
2018-07-23T17:50:57.747Z,30.40
2018-07-23T17:53:26.560Z,29.80
2018-07-23T17:55:55.252Z,29.40
2018-07-23T17:58:23.762Z,29.10
2018-07-23T18:00:52.347Z,29.10
2018-07-23T18:03:20.876Z,29.10
2018-07-23T18:05:49.381Z,29.30
2018-07-23T18:08:18.052Z,29.60
2018-07-23T18:10:46.743Z,30.10
2018-07-23T18:13:15.376Z,30.60
2018-07-23T18:15:44.853Z,30.90
2018-07-23T18:18:13.565Z,31.10
2018-07-23T18:20:42.308Z,30.80
2018-07-23T18:23:11.699Z,30.30
2018-07-23T18:25:40.487Z,29.80
2018-07-23T18:28:09.076Z,29.40
2018-07-23T18:30:38.584Z,29.00
2018-07-23T18:33:07.199Z,28.70
2018-07-23T18:35:35.785Z,28.60
2018-07-23T18:38:04.492Z,28.40
2018-07-23T18:43:01.400Z,28.20
2018-07-23T18:45:30.141Z,28.10
2018-07-23T18:47:58.708Z,28.00
2018-07-23T18:50:27.271Z,27.90
2018-07-23T18:52:55.778Z,27.80
2018-07-23T18:55:24.327Z,27.80
2018-07-23T19:00:21.139Z,27.60
2018-07-23T19:02:49.667Z,27.40
2018-07-23T19:05:18.189Z,27.30
2018-07-23T19:07:46.676Z,27.20
2018-07-23T19:10:15.555Z,27.10
2018-07-23T19:12:45.846Z,27.00
2018-07-23T19:15:14.443Z,26.90
2018-07-23T19:17:48.819Z,26.80
2018-07-23T19:20:18.215Z,26.70
2018-07-23T19:22:46.853Z,26.60
2018-07-23T19:25:16.584Z,26.50
2018-07-23T19:27:47.081Z,26.30
2018-07-23T19:30:16.273Z,26.20
2018-07-23T19:32:46.293Z,26.10
2018-07-23T19:35:16.604Z,25.90
2018-07-23T19:37:45.187Z,25.80
2018-07-23T19:40:13.761Z,25.70
2018-07-23T19:42:42.306Z,25.60
2018-07-23T19:45:10.078Z,25.40
2018-07-23T19:47:38.775Z,25.30
2018-07-23T19:50:07.282Z,25.20
2018-07-23T19:52:35.879Z,25.20
2018-07-23T19:55:04.450Z,25.10
2018-07-23T19:57:33.114Z,25.00
2018-07-23T20:00:01.844Z,24.90
2018-07-23T20:02:30.371Z,24.90
2018-07-23T20:04:59.789Z,24.80
2018-07-23T20:07:28.822Z,24.80
2018-07-23T20:09:57.550Z,24.70
